Altos de Chipion, Argentina
Current Conditions -  °F | °C
As of 7:00 AM on Wednesday 22 Oct 2014 (Local Time) from SACO Reporting Station
Clear Clear  
Wind Chill: 68°   Ceiling: Unl
Heat Index: 68°   Visibility: 6mi
Dew Point: 45°   Wind: 16mph
Humidity: 43%   Direction: 20°NNE
Pressure: 30"   Gusts: NA
Location:  30.93°S, 62.28°W
Report Text: SACO 221000Z 02014KT CAVOK 20/07 Q1016
Loading
Personal Weather Stations






























Interactive Weather Map
Tropical Storm Tracking
New forecast layout! Learn more

10-Day Weather Forecast

Advertisements
Track Severe Weather on mobile